sensor_id;sensor_type;location;lat;lon;timestamp;P1;durP1;ratioP1;P2;durP2;ratioP2
9422;SDS011;65863;49.506;10.400;2023-05-23T00:01:53;7.90;;;5.97;;
9422;SDS011;65863;49.506;10.400;2023-05-23T00:04:37;7.63;;;6.33;;
9422;SDS011;65863;49.506;10.400;2023-05-23T00:07:21;9.77;;;6.97;;
9422;SDS011;65863;49.506;10.400;2023-05-23T00:10:06;9.33;;;6.73;;
9422;SDS011;65863;49.506;10.400;2023-05-23T00:12:50;8.37;;;6.40;;
9422;SDS011;65863;49.506;10.400;2023-05-23T00:15:35;7.63;;;6.17;;
9422;SDS011;65863;49.506;10.400;2023-05-23T00:18:24;8.47;;;5.97;;
9422;SDS011;65863;49.506;10.400;2023-05-23T00:21:08;9.53;;;6.90;;
9422;SDS011;65863;49.506;10.400;2023-05-23T00:23:52;8.80;;;6.20;;
9422;SDS011;65863;49.506;10.400;2023-05-23T00:26:36;8.07;;;6.27;;
9422;SDS011;65863;49.506;10.400;2023-05-23T00:29:21;12.80;;;6.47;;
9422;SDS011;65863;49.506;10.400;2023-05-23T00:32:05;8.90;;;7.60;;
9422;SDS011;65863;49.506;10.400;2023-05-23T00:34:49;7.43;;;5.37;;
9422;SDS011;65863;49.506;10.400;2023-05-23T00:37:33;7.07;;;6.37;;
9422;SDS011;65863;49.506;10.400;2023-05-23T00:40:17;10.47;;;6.37;;
9422;SDS011;65863;49.506;10.400;2023-05-23T00:43:02;7.80;;;6.40;;
9422;SDS011;65863;49.506;10.400;2023-05-23T00:45:47;7.93;;;6.13;;
9422;SDS011;65863;49.506;10.400;2023-05-23T00:48:32;9.73;;;6.57;;
9422;SDS011;65863;49.506;10.400;2023-05-23T00:51:16;9.07;;;6.23;;
9422;SDS011;65863;49.506;10.400;2023-05-23T00:54:01;6.97;;;5.93;;
9422;SDS011;65863;49.506;10.400;2023-05-23T00:56:48;7.67;;;6.37;;
9422;SDS011;65863;49.506;10.400;2023-05-23T00:59:32;8.17;;;5.70;;
9422;SDS011;65863;49.506;10.400;2023-05-23T01:02:16;9.00;;;6.40;;
9422;SDS011;65863;49.506;10.400;2023-05-23T01:05:00;9.07;;;5.93;;
9422;SDS011;65863;49.506;10.400;2023-05-23T01:07:46;7.30;;;5.93;;
9422;SDS011;65863;49.506;10.400;2023-05-23T01:10:31;7.77;;;6.03;;
9422;SDS011;65863;49.506;10.400;2023-05-23T01:13:28;6.73;;;5.60;;
9422;SDS011;65863;49.506;10.400;2023-05-23T01:22:58;6.70;;;5.80;;
9422;SDS011;65863;49.506;10.400;2023-05-23T01:28:53;8.10;;;6.10;;
9422;SDS011;65863;49.506;10.400;2023-05-23T01:31:42;8.03;;;5.70;;
9422;SDS011;65863;49.506;10.400;2023-05-23T01:34:29;9.67;;;6.97;;
9422;SDS011;65863;49.506;10.400;2023-05-23T01:37:16;8.57;;;5.80;;
9422;SDS011;65863;49.506;10.400;2023-05-23T01:40:02;7.63;;;6.17;;
9422;SDS011;65863;49.506;10.400;2023-05-23T01:42:47;9.03;;;6.67;;
9422;SDS011;65863;49.506;10.400;2023-05-23T01:45:32;7.70;;;6.13;;
9422;SDS011;65863;49.506;10.400;2023-05-23T01:48:16;7.53;;;6.20;;
9422;SDS011;65863;49.506;10.400;2023-05-23T01:51:01;8.83;;;6.67;;
9422;SDS011;65863;49.506;10.400;2023-05-23T01:53:46;8.43;;;6.03;;
9422;SDS011;65863;49.506;10.400;2023-05-23T01:56:30;8.90;;;6.17;;
9422;SDS011;65863;49.506;10.400;2023-05-23T01:59:15;7.90;;;6.20;;
9422;SDS011;65863;49.506;10.400;2023-05-23T02:01:59;9.57;;;7.07;;
9422;SDS011;65863;49.506;10.400;2023-05-23T02:04:43;9.60;;;6.73;;
9422;SDS011;65863;49.506;10.400;2023-05-23T02:07:27;9.33;;;7.33;;
9422;SDS011;65863;49.506;10.400;2023-05-23T02:10:11;7.93;;;7.13;;
9422;SDS011;65863;49.506;10.400;2023-05-23T02:12:55;9.27;;;7.40;;
9422;SDS011;65863;49.506;10.400;2023-05-23T02:15:39;10.27;;;7.40;;
9422;SDS011;65863;49.506;10.400;2023-05-23T02:18:23;9.97;;;7.63;;
9422;SDS011;65863;49.506;10.400;2023-05-23T02:21:09;10.27;;;7.17;;
9422;SDS011;65863;49.506;10.400;2023-05-23T02:23:54;13.47;;;8.03;;
9422;SDS011;65863;49.506;10.400;2023-05-23T02:26:39;10.93;;;8.60;;
9422;SDS011;65863;49.506;10.400;2023-05-23T02:29:24;10.53;;;8.47;;
9422;SDS011;65863;49.506;10.400;2023-05-23T02:32:08;12.47;;;8.13;;
9422;SDS011;65863;49.506;10.400;2023-05-23T02:34:52;12.30;;;9.07;;
9422;SDS011;65863;49.506;10.400;2023-05-23T02:37:37;11.73;;;8.60;;
9422;SDS011;65863;49.506;10.400;2023-05-23T02:40:21;12.03;;;8.50;;
9422;SDS011;65863;49.506;10.400;2023-05-23T02:43:05;11.77;;;8.37;;
9422;SDS011;65863;49.506;10.400;2023-05-23T02:45:50;12.00;;;9.00;;
9422;SDS011;65863;49.506;10.400;2023-05-23T02:48:34;14.60;;;9.97;;
9422;SDS011;65863;49.506;10.400;2023-05-23T02:51:18;12.20;;;9.30;;
9422;SDS011;65863;49.506;10.400;2023-05-23T02:54:03;12.60;;;9.07;;
9422;SDS011;65863;49.506;10.400;2023-05-23T02:56:50;10.70;;;9.10;;
9422;SDS011;65863;49.506;10.400;2023-05-23T02:59:36;14.77;;;9.80;;
9422;SDS011;65863;49.506;10.400;2023-05-23T03:02:20;12.50;;;8.37;;
9422;SDS011;65863;49.506;10.400;2023-05-23T03:05:04;13.10;;;9.57;;
9422;SDS011;65863;49.506;10.400;2023-05-23T03:07:48;15.67;;;9.83;;
9422;SDS011;65863;49.506;10.400;2023-05-23T03:10:34;13.00;;;9.50;;
9422;SDS011;65863;49.506;10.400;2023-05-23T03:13:18;11.73;;;8.87;;
9422;SDS011;65863;49.506;10.400;2023-05-23T03:16:02;12.67;;;9.20;;
9422;SDS011;65863;49.506;10.400;2023-05-23T03:18:47;13.77;;;9.50;;
9422;SDS011;65863;49.506;10.400;2023-05-23T03:21:33;14.80;;;9.93;;
9422;SDS011;65863;49.506;10.400;2023-05-23T03:24:18;12.20;;;9.43;;
9422;SDS011;65863;49.506;10.400;2023-05-23T03:27:02;11.63;;;9.10;;
9422;SDS011;65863;49.506;10.400;2023-05-23T03:29:47;10.87;;;8.23;;
9422;SDS011;65863;49.506;10.400;2023-05-23T03:32:30;12.47;;;8.83;;
9422;SDS011;65863;49.506;10.400;2023-05-23T03:35:15;11.70;;;9.33;;
9422;SDS011;65863;49.506;10.400;2023-05-23T03:37:59;12.10;;;8.87;;
9422;SDS011;65863;49.506;10.400;2023-05-23T03:40:43;12.90;;;9.70;;
9422;SDS011;65863;49.506;10.400;2023-05-23T03:43:27;14.67;;;10.27;;
9422;SDS011;65863;49.506;10.400;2023-05-23T03:46:11;14.07;;;10.13;;
9422;SDS011;65863;49.506;10.400;2023-05-23T03:48:56;15.40;;;10.23;;
9422;SDS011;65863;49.506;10.400;2023-05-23T03:51:40;12.10;;;9.33;;
9422;SDS011;65863;49.506;10.400;2023-05-23T03:54:24;12.57;;;9.93;;
9422;SDS011;65863;49.506;10.400;2023-05-23T03:57:09;13.53;;;10.10;;
9422;SDS011;65863;49.506;10.400;2023-05-23T03:59:53;17.90;;;11.23;;
9422;SDS011;65863;49.506;10.400;2023-05-23T04:02:38;17.77;;;11.90;;
9422;SDS011;65863;49.506;10.400;2023-05-23T04:05:23;15.17;;;9.60;;
9422;SDS011;65863;49.506;10.400;2023-05-23T04:08:07;14.03;;;10.43;;
9422;SDS011;65863;49.506;10.400;2023-05-23T04:10:52;15.73;;;11.07;;
9422;SDS011;65863;49.506;10.400;2023-05-23T04:13:37;16.70;;;11.40;;
9422;SDS011;65863;49.506;10.400;2023-05-23T04:16:22;15.10;;;9.90;;
9422;SDS011;65863;49.506;10.400;2023-05-23T04:19:06;19.17;;;10.50;;
9422;SDS011;65863;49.506;10.400;2023-05-23T04:21:52;15.60;;;10.57;;
9422;SDS011;65863;49.506;10.400;2023-05-23T04:24:36;14.20;;;9.20;;
9422;SDS011;65863;49.506;10.400;2023-05-23T04:27:21;11.63;;;9.17;;
9422;SDS011;65863;49.506;10.400;2023-05-23T04:30:05;12.37;;;8.63;;
9422;SDS011;65863;49.506;10.400;2023-05-23T04:32:53;12.90;;;8.90;;
9422;SDS011;65863;49.506;10.400;2023-05-23T04:35:37;12.40;;;9.40;;
9422;SDS011;65863;49.506;10.400;2023-05-23T04:38:23;11.50;;;8.83;;
9422;SDS011;65863;49.506;10.400;2023-05-23T04:41:08;14.10;;;8.80;;
9422;SDS011;65863;49.506;10.400;2023-05-23T04:44:13;15.03;;;9.07;;
9422;SDS011;65863;49.506;10.400;2023-05-23T04:47:08;10.97;;;8.90;;
9422;SDS011;65863;49.506;10.400;2023-05-23T04:50:09;11.47;;;8.83;;
9422;SDS011;65863;49.506;10.400;2023-05-23T04:52:54;11.90;;;9.37;;
9422;SDS011;65863;49.506;10.400;2023-05-23T04:55:38;12.80;;;9.03;;
9422;SDS011;65863;49.506;10.400;2023-05-23T04:58:26;13.43;;;8.47;;
9422;SDS011;65863;49.506;10.400;2023-05-23T05:01:14;11.13;;;8.30;;
9422;SDS011;65863;49.506;10.400;2023-05-23T05:03:58;12.00;;;9.10;;
9422;SDS011;65863;49.506;10.400;2023-05-23T05:06:42;14.33;;;8.93;;
9422;SDS011;65863;49.506;10.400;2023-05-23T05:09:27;12.47;;;9.40;;
9422;SDS011;65863;49.506;10.400;2023-05-23T05:12:10;15.73;;;10.03;;
9422;SDS011;65863;49.506;10.400;2023-05-23T05:14:56;15.80;;;10.40;;
9422;SDS011;65863;49.506;10.400;2023-05-23T05:17:40;12.70;;;9.63;;
9422;SDS011;65863;49.506;10.400;2023-05-23T05:20:28;13.53;;;9.17;;
9422;SDS011;65863;49.506;10.400;2023-05-23T05:23:12;16.33;;;9.53;;
9422;SDS011;65863;49.506;10.400;2023-05-23T05:25:56;12.77;;;9.63;;
9422;SDS011;65863;49.506;10.400;2023-05-23T05:28:40;13.80;;;8.67;;
9422;SDS011;65863;49.506;10.400;2023-05-23T05:31:24;11.07;;;7.87;;
9422;SDS011;65863;49.506;10.400;2023-05-23T05:34:08;10.50;;;7.53;;
9422;SDS011;65863;49.506;10.400;2023-05-23T05:36:52;10.67;;;8.17;;
9422;SDS011;65863;49.506;10.400;2023-05-23T05:39:38;9.97;;;7.57;;
9422;SDS011;65863;49.506;10.400;2023-05-23T05:42:22;8.83;;;7.37;;
9422;SDS011;65863;49.506;10.400;2023-05-23T05:45:06;8.13;;;7.10;;
9422;SDS011;65863;49.506;10.400;2023-05-23T05:47:51;8.50;;;7.07;;
9422;SDS011;65863;49.506;10.400;2023-05-23T05:50:37;9.23;;;7.17;;
9422;SDS011;65863;49.506;10.400;2023-05-23T05:53:22;9.97;;;7.00;;
9422;SDS011;65863;49.506;10.400;2023-05-23T05:56:07;8.83;;;7.10;;
9422;SDS011;65863;49.506;10.400;2023-05-23T05:58:52;9.50;;;7.10;;
9422;SDS011;65863;49.506;10.400;2023-05-23T06:01:36;10.03;;;7.93;;
9422;SDS011;65863;49.506;10.400;2023-05-23T06:04:23;8.63;;;6.97;;
9422;SDS011;65863;49.506;10.400;2023-05-23T06:07:07;8.20;;;6.70;;
9422;SDS011;65863;49.506;10.400;2023-05-23T06:09:51;9.27;;;7.30;;
9422;SDS011;65863;49.506;10.400;2023-05-23T06:12:35;10.70;;;7.57;;
9422;SDS011;65863;49.506;10.400;2023-05-23T06:15:19;12.10;;;6.80;;
9422;SDS011;65863;49.506;10.400;2023-05-23T06:18:03;9.73;;;7.47;;
9422;SDS011;65863;49.506;10.400;2023-05-23T06:20:49;8.73;;;6.87;;
9422;SDS011;65863;49.506;10.400;2023-05-23T06:23:34;9.93;;;7.40;;
9422;SDS011;65863;49.506;10.400;2023-05-23T06:26:18;10.37;;;7.13;;
9422;SDS011;65863;49.506;10.400;2023-05-23T06:29:02;8.60;;;7.23;;
9422;SDS011;65863;49.506;10.400;2023-05-23T06:31:46;9.50;;;7.50;;
9422;SDS011;65863;49.506;10.400;2023-05-23T06:34:30;11.50;;;7.80;;
9422;SDS011;65863;49.506;10.400;2023-05-23T06:37:14;8.67;;;6.83;;
9422;SDS011;65863;49.506;10.400;2023-05-23T06:39:58;10.23;;;7.33;;
9422;SDS011;65863;49.506;10.400;2023-05-23T06:42:43;7.47;;;6.57;;
9422;SDS011;65863;49.506;10.400;2023-05-23T06:45:36;8.63;;;7.27;;
9422;SDS011;65863;49.506;10.400;2023-05-23T06:48:20;8.93;;;7.30;;
9422;SDS011;65863;49.506;10.400;2023-05-23T06:51:05;9.80;;;7.93;;
9422;SDS011;65863;49.506;10.400;2023-05-23T06:53:49;11.27;;;7.93;;
9422;SDS011;65863;49.506;10.400;2023-05-23T06:56:35;10.33;;;7.50;;
9422;SDS011;65863;49.506;10.400;2023-05-23T06:59:21;9.70;;;7.57;;
9422;SDS011;65863;49.506;10.400;2023-05-23T07:02:05;9.67;;;7.50;;
9422;SDS011;65863;49.506;10.400;2023-05-23T07:04:49;11.00;;;8.00;;
9422;SDS011;65863;49.506;10.400;2023-05-23T07:07:41;10.03;;;7.97;;
9422;SDS011;65863;49.506;10.400;2023-05-23T07:10:26;9.50;;;7.57;;
9422;SDS011;65863;49.506;10.400;2023-05-23T07:13:14;11.03;;;7.73;;
9422;SDS011;65863;49.506;10.400;2023-05-23T07:15:58;10.13;;;7.60;;
9422;SDS011;65863;49.506;10.400;2023-05-23T07:18:43;9.70;;;7.57;;
9422;SDS011;65863;49.506;10.400;2023-05-23T07:21:26;9.27;;;7.87;;
9422;SDS011;65863;49.506;10.400;2023-05-23T07:24:11;9.03;;;7.13;;
9422;SDS011;65863;49.506;10.400;2023-05-23T07:26:55;8.23;;;6.73;;
9422;SDS011;65863;49.506;10.400;2023-05-23T07:29:39;9.17;;;6.93;;
9422;SDS011;65863;49.506;10.400;2023-05-23T07:32:26;8.47;;;7.03;;
9422;SDS011;65863;49.506;10.400;2023-05-23T07:35:09;10.67;;;6.40;;
9422;SDS011;65863;49.506;10.400;2023-05-23T07:37:54;7.47;;;6.30;;
9422;SDS011;65863;49.506;10.400;2023-05-23T07:40:38;7.20;;;5.97;;
9422;SDS011;65863;49.506;10.400;2023-05-23T07:43:23;8.33;;;5.80;;
9422;SDS011;65863;49.506;10.400;2023-05-23T07:46:06;6.70;;;5.57;;
9422;SDS011;65863;49.506;10.400;2023-05-23T07:48:51;8.30;;;5.53;;
9422;SDS011;65863;49.506;10.400;2023-05-23T07:51:35;6.07;;;5.43;;
9422;SDS011;65863;49.506;10.400;2023-05-23T07:54:19;5.93;;;5.20;;
9422;SDS011;65863;49.506;10.400;2023-05-23T07:57:09;6.20;;;5.20;;
9422;SDS011;65863;49.506;10.400;2023-05-23T07:59:53;10.03;;;4.97;;
9422;SDS011;65863;49.506;10.400;2023-05-23T08:02:37;5.60;;;4.97;;
9422;SDS011;65863;49.506;10.400;2023-05-23T08:05:21;6.30;;;5.00;;
9422;SDS011;65863;49.506;10.400;2023-05-23T08:08:09;5.10;;;4.60;;
9422;SDS011;65863;49.506;10.400;2023-05-23T08:10:54;5.93;;;4.73;;
9422;SDS011;65863;49.506;10.400;2023-05-23T08:13:43;5.47;;;4.47;;
9422;SDS011;65863;49.506;10.400;2023-05-23T08:16:53;4.93;;;4.43;;
9422;SDS011;65863;49.506;10.400;2023-05-23T08:19:41;5.37;;;4.50;;
9422;SDS011;65863;49.506;10.400;2023-05-23T08:22:25;5.47;;;4.53;;
9422;SDS011;65863;49.506;10.400;2023-05-23T08:25:09;5.00;;;4.20;;
9422;SDS011;65863;49.506;10.400;2023-05-23T08:27:57;4.63;;;4.17;;
9422;SDS011;65863;49.506;10.400;2023-05-23T08:31:16;5.07;;;4.00;;
9422;SDS011;65863;49.506;10.400;2023-05-23T08:34:01;5.80;;;4.10;;
9422;SDS011;65863;49.506;10.400;2023-05-23T08:36:46;4.17;;;3.67;;
9422;SDS011;65863;49.506;10.400;2023-05-23T08:39:34;5.23;;;4.17;;
9422;SDS011;65863;49.506;10.400;2023-05-23T08:42:37;4.80;;;4.13;;
9422;SDS011;65863;49.506;10.400;2023-05-23T08:45:23;5.00;;;3.90;;
9422;SDS011;65863;49.506;10.400;2023-05-23T08:48:08;4.13;;;3.73;;
9422;SDS011;65863;49.506;10.400;2023-05-23T08:50:59;5.27;;;3.70;;
9422;SDS011;65863;49.506;10.400;2023-05-23T08:53:45;6.73;;;3.43;;
9422;SDS011;65863;49.506;10.400;2023-05-23T08:56:31;4.13;;;3.73;;
9422;SDS011;65863;49.506;10.400;2023-05-23T08:59:15;4.80;;;3.20;;
9422;SDS011;65863;49.506;10.400;2023-05-23T09:02:00;4.10;;;3.40;;
9422;SDS011;65863;49.506;10.400;2023-05-23T09:04:47;3.77;;;3.33;;
9422;SDS011;65863;49.506;10.400;2023-05-23T09:07:35;5.20;;;3.43;;
9422;SDS011;65863;49.506;10.400;2023-05-23T09:10:21;4.20;;;3.03;;
9422;SDS011;65863;49.506;10.400;2023-05-23T09:13:06;6.07;;;3.00;;
9422;SDS011;65863;49.506;10.400;2023-05-23T09:16:04;3.50;;;3.20;;
9422;SDS011;65863;49.506;10.400;2023-05-23T09:18:56;3.20;;;2.90;;
9422;SDS011;65863;49.506;10.400;2023-05-23T09:21:42;3.43;;;2.83;;
9422;SDS011;65863;49.506;10.400;2023-05-23T09:24:41;3.20;;;2.90;;
9422;SDS011;65863;49.506;10.400;2023-05-23T09:27:27;3.20;;;2.90;;
9422;SDS011;65863;49.506;10.400;2023-05-23T09:30:12;3.83;;;3.47;;
9422;SDS011;65863;49.506;10.400;2023-05-23T09:32:59;3.13;;;2.57;;
9422;SDS011;65863;49.506;10.400;2023-05-23T09:35:43;3.63;;;2.33;;
9422;SDS011;65863;49.506;10.400;2023-05-23T09:38:29;4.57;;;2.60;;
9422;SDS011;65863;49.506;10.400;2023-05-23T09:41:13;3.10;;;2.80;;
9422;SDS011;65863;49.506;10.400;2023-05-23T09:43:57;3.60;;;2.60;;
9422;SDS011;65863;49.506;10.400;2023-05-23T09:46:42;4.13;;;2.70;;
9422;SDS011;65863;49.506;10.400;2023-05-23T09:49:27;2.73;;;2.53;;
9422;SDS011;65863;49.506;10.400;2023-05-23T09:52:11;3.97;;;2.67;;
9422;SDS011;65863;49.506;10.400;2023-05-23T09:54:56;2.57;;;2.37;;
9422;SDS011;65863;49.506;10.400;2023-05-23T09:57:40;2.43;;;2.17;;
9422;SDS011;65863;49.506;10.400;2023-05-23T10:00:25;2.60;;;1.97;;
9422;SDS011;65863;49.506;10.400;2023-05-23T10:03:10;2.30;;;2.10;;
9422;SDS011;65863;49.506;10.400;2023-05-23T10:06:01;2.83;;;2.10;;
9422;SDS011;65863;49.506;10.400;2023-05-23T10:08:56;2.33;;;2.17;;
9422;SDS011;65863;49.506;10.400;2023-05-23T10:14:42;2.50;;;2.30;;
9422;SDS011;65863;49.506;10.400;2023-05-23T10:17:51;2.13;;;1.93;;
9422;SDS011;65863;49.506;10.400;2023-05-23T10:20:40;2.17;;;1.97;;
9422;SDS011;65863;49.506;10.400;2023-05-23T10:23:30;2.20;;;2.00;;
9422;SDS011;65863;49.506;10.400;2023-05-23T10:26:16;1.90;;;1.80;;
9422;SDS011;65863;49.506;10.400;2023-05-23T10:29:00;2.47;;;2.27;;
9422;SDS011;65863;49.506;10.400;2023-05-23T10:31:45;3.43;;;2.43;;
9422;SDS011;65863;49.506;10.400;2023-05-23T10:37:26;2.13;;;1.70;;
9422;SDS011;65863;49.506;10.400;2023-05-23T10:46:56;2.00;;;1.77;;
9422;SDS011;65863;49.506;10.400;2023-05-23T10:49:50;1.87;;;1.77;;
9422;SDS011;65863;49.506;10.400;2023-05-23T10:52:38;2.87;;;1.80;;
9422;SDS011;65863;49.506;10.400;2023-05-23T10:55:23;2.27;;;2.07;;
9422;SDS011;65863;49.506;10.400;2023-05-23T10:58:13;2.00;;;1.80;;
9422;SDS011;65863;49.506;10.400;2023-05-23T11:01:01;2.10;;;1.90;;
9422;SDS011;65863;49.506;10.400;2023-05-23T11:03:49;3.73;;;1.90;;
9422;SDS011;65863;49.506;10.400;2023-05-23T11:06:41;1.97;;;1.70;;
9422;SDS011;65863;49.506;10.400;2023-05-23T11:09:26;1.57;;;1.47;;
9422;SDS011;65863;49.506;10.400;2023-05-23T11:12:11;1.57;;;1.47;;
9422;SDS011;65863;49.506;10.400;2023-05-23T11:14:55;2.13;;;1.93;;
9422;SDS011;65863;49.506;10.400;2023-05-23T11:17:39;2.43;;;1.73;;
9422;SDS011;65863;49.506;10.400;2023-05-23T11:20:33;2.60;;;1.47;;
9422;SDS011;65863;49.506;10.400;2023-05-23T11:23:20;1.50;;;1.40;;
9422;SDS011;65863;49.506;10.400;2023-05-23T11:26:05;1.90;;;1.80;;
9422;SDS011;65863;49.506;10.400;2023-05-23T11:29:12;1.80;;;1.60;;
9422;SDS011;65863;49.506;10.400;2023-05-23T11:31:59;5.13;;;1.70;;
9422;SDS011;65863;49.506;10.400;2023-05-23T11:34:43;2.03;;;1.87;;
9422;SDS011;65863;49.506;10.400;2023-05-23T11:37:27;1.83;;;1.67;;
9422;SDS011;65863;49.506;10.400;2023-05-23T11:40:25;1.67;;;1.53;;
9422;SDS011;65863;49.506;10.400;2023-05-23T11:43:13;2.90;;;1.57;;
9422;SDS011;65863;49.506;10.400;2023-05-23T11:46:06;2.03;;;1.73;;
9422;SDS011;65863;49.506;10.400;2023-05-23T11:48:53;2.00;;;1.80;;
9422;SDS011;65863;49.506;10.400;2023-05-23T11:51:37;1.50;;;1.40;;
9422;SDS011;65863;49.506;10.400;2023-05-23T11:54:25;1.47;;;1.37;;
9422;SDS011;65863;49.506;10.400;2023-05-23T11:57:09;1.53;;;1.43;;
9422;SDS011;65863;49.506;10.400;2023-05-23T11:59:56;1.63;;;1.53;;
9422;SDS011;65863;49.506;10.400;2023-05-23T12:02:40;1.57;;;1.47;;
9422;SDS011;65863;49.506;10.400;2023-05-23T12:05:25;1.40;;;1.30;;
9422;SDS011;65863;49.506;10.400;2023-05-23T12:08:11;1.17;;;1.10;;
9422;SDS011;65863;49.506;10.400;2023-05-23T12:10:58;1.73;;;1.60;;
9422;SDS011;65863;49.506;10.400;2023-05-23T12:13:43;1.60;;;1.50;;
9422;SDS011;65863;49.506;10.400;2023-05-23T12:16:27;2.03;;;1.73;;
9422;SDS011;65863;49.506;10.400;2023-05-23T12:19:12;1.30;;;1.20;;
9422;SDS011;65863;49.506;10.400;2023-05-23T12:21:57;1.77;;;1.47;;
9422;SDS011;65863;49.506;10.400;2023-05-23T12:24:53;2.07;;;1.40;;
9422;SDS011;65863;49.506;10.400;2023-05-23T12:27:39;1.50;;;1.40;;
9422;SDS011;65863;49.506;10.400;2023-05-23T12:30:26;1.70;;;1.60;;
9422;SDS011;65863;49.506;10.400;2023-05-23T12:33:10;1.47;;;1.37;;
9422;SDS011;65863;49.506;10.400;2023-05-23T12:35:58;1.50;;;1.40;;
9422;SDS011;65863;49.506;10.400;2023-05-23T12:38:42;1.63;;;1.53;;
9422;SDS011;65863;49.506;10.400;2023-05-23T12:41:28;2.53;;;1.30;;
9422;SDS011;65863;49.506;10.400;2023-05-23T12:44:14;1.60;;;1.50;;
9422;SDS011;65863;49.506;10.400;2023-05-23T12:46:59;1.50;;;1.40;;
9422;SDS011;65863;49.506;10.400;2023-05-23T12:49:43;1.80;;;1.50;;
9422;SDS011;65863;49.506;10.400;2023-05-23T12:52:29;1.37;;;1.27;;
9422;SDS011;65863;49.506;10.400;2023-05-23T12:55:13;1.43;;;1.33;;
9422;SDS011;65863;49.506;10.400;2023-05-23T12:57:57;1.50;;;1.40;;
9422;SDS011;65863;49.506;10.400;2023-05-23T13:00:41;1.47;;;1.37;;
9422;SDS011;65863;49.506;10.400;2023-05-23T13:03:25;1.60;;;1.50;;
9422;SDS011;65863;49.506;10.400;2023-05-23T13:06:10;1.30;;;1.10;;
9422;SDS011;65863;49.506;10.400;2023-05-23T13:08:54;1.40;;;1.30;;
9422;SDS011;65863;49.506;10.400;2023-05-23T13:11:38;1.50;;;1.40;;
9422;SDS011;65863;49.506;10.400;2023-05-23T13:14:21;1.70;;;1.60;;
9422;SDS011;65863;49.506;10.400;2023-05-23T13:17:05;1.43;;;1.30;;
9422;SDS011;65863;49.506;10.400;2023-05-23T13:19:49;1.37;;;1.27;;
9422;SDS011;65863;49.506;10.400;2023-05-23T13:22:34;1.93;;;1.30;;
9422;SDS011;65863;49.506;10.400;2023-05-23T13:25:17;1.70;;;1.60;;
9422;SDS011;65863;49.506;10.400;2023-05-23T13:28:01;1.70;;;1.60;;
9422;SDS011;65863;49.506;10.400;2023-05-23T13:30:45;1.50;;;1.40;;
9422;SDS011;65863;49.506;10.400;2023-05-23T13:33:29;1.40;;;1.30;;
9422;SDS011;65863;49.506;10.400;2023-05-23T13:36:13;1.37;;;1.27;;
9422;SDS011;65863;49.506;10.400;2023-05-23T13:38:57;1.30;;;1.17;;
9422;SDS011;65863;49.506;10.400;2023-05-23T13:41:42;1.43;;;1.33;;
9422;SDS011;65863;49.506;10.400;2023-05-23T13:44:26;1.30;;;1.20;;
9422;SDS011;65863;49.506;10.400;2023-05-23T13:47:11;1.73;;;1.50;;
9422;SDS011;65863;49.506;10.400;2023-05-23T13:49:56;1.53;;;1.43;;
9422;SDS011;65863;49.506;10.400;2023-05-23T13:52:42;1.80;;;1.70;;
9422;SDS011;65863;49.506;10.400;2023-05-23T13:55:26;1.80;;;1.50;;
9422;SDS011;65863;49.506;10.400;2023-05-23T13:58:10;1.30;;;1.20;;
9422;SDS011;65863;49.506;10.400;2023-05-23T14:00:55;1.80;;;1.70;;
9422;SDS011;65863;49.506;10.400;2023-05-23T14:03:39;1.43;;;1.33;;
9422;SDS011;65863;49.506;10.400;2023-05-23T14:06:23;1.50;;;1.40;;
9422;SDS011;65863;49.506;10.400;2023-05-23T14:09:07;1.47;;;1.27;;
9422;SDS011;65863;49.506;10.400;2023-05-23T14:11:51;1.50;;;1.40;;
9422;SDS011;65863;49.506;10.400;2023-05-23T14:14:36;1.80;;;1.67;;
9422;SDS011;65863;49.506;10.400;2023-05-23T14:17:20;1.30;;;1.27;;
9422;SDS011;65863;49.506;10.400;2023-05-23T14:20:04;1.40;;;1.30;;
9422;SDS011;65863;49.506;10.400;2023-05-23T14:22:49;1.40;;;1.30;;
9422;SDS011;65863;49.506;10.400;2023-05-23T14:25:33;1.67;;;1.57;;
9422;SDS011;65863;49.506;10.400;2023-05-23T14:28:17;1.50;;;1.40;;
9422;SDS011;65863;49.506;10.400;2023-05-23T14:31:01;1.33;;;1.23;;
9422;SDS011;65863;49.506;10.400;2023-05-23T14:33:46;1.47;;;1.37;;
9422;SDS011;65863;49.506;10.400;2023-05-23T14:36:30;1.63;;;1.50;;
9422;SDS011;65863;49.506;10.400;2023-05-23T14:39:14;1.40;;;1.30;;
9422;SDS011;65863;49.506;10.400;2023-05-23T14:41:58;1.47;;;1.37;;
9422;SDS011;65863;49.506;10.400;2023-05-23T14:44:43;1.50;;;1.40;;
9422;SDS011;65863;49.506;10.400;2023-05-23T14:47:26;1.47;;;1.37;;
9422;SDS011;65863;49.506;10.400;2023-05-23T14:50:11;1.67;;;1.20;;
9422;SDS011;65863;49.506;10.400;2023-05-23T14:52:55;1.00;;;1.00;;
9422;SDS011;65863;49.506;10.400;2023-05-23T14:55:38;1.00;;;0.80;;
9422;SDS011;65863;49.506;10.400;2023-05-23T14:58:22;1.30;;;1.20;;
9422;SDS011;65863;49.506;10.400;2023-05-23T15:01:08;1.27;;;1.17;;
9422;SDS011;65863;49.506;10.400;2023-05-23T15:03:52;1.87;;;1.20;;
9422;SDS011;65863;49.506;10.400;2023-05-23T15:06:37;0.80;;;0.80;;
9422;SDS011;65863;49.506;10.400;2023-05-23T15:09:21;1.30;;;1.20;;
9422;SDS011;65863;49.506;10.400;2023-05-23T15:12:05;1.20;;;1.10;;
9422;SDS011;65863;49.506;10.400;2023-05-23T15:14:52;1.43;;;1.20;;
9422;SDS011;65863;49.506;10.400;2023-05-23T15:17:36;1.30;;;1.10;;
9422;SDS011;65863;49.506;10.400;2023-05-23T15:20:20;1.27;;;1.17;;
9422;SDS011;65863;49.506;10.400;2023-05-23T15:23:05;1.30;;;1.20;;
9422;SDS011;65863;49.506;10.400;2023-05-23T15:25:49;1.40;;;1.30;;
9422;SDS011;65863;49.506;10.400;2023-05-23T15:28:33;1.23;;;1.13;;
9422;SDS011;65863;49.506;10.400;2023-05-23T15:31:17;2.43;;;1.10;;
9422;SDS011;65863;49.506;10.400;2023-05-23T15:34:01;1.10;;;1.10;;
9422;SDS011;65863;49.506;10.400;2023-05-23T15:36:44;1.23;;;1.13;;
9422;SDS011;65863;49.506;10.400;2023-05-23T15:39:29;1.47;;;1.37;;
9422;SDS011;65863;49.506;10.400;2023-05-23T15:42:13;1.47;;;1.20;;
9422;SDS011;65863;49.506;10.400;2023-05-23T15:44:57;1.33;;;1.23;;
9422;SDS011;65863;49.506;10.400;2023-05-23T15:47:41;1.30;;;1.20;;
9422;SDS011;65863;49.506;10.400;2023-05-23T15:50:25;2.97;;;1.40;;
9422;SDS011;65863;49.506;10.400;2023-05-23T15:53:09;1.57;;;1.20;;
9422;SDS011;65863;49.506;10.400;2023-05-23T15:55:53;1.40;;;1.30;;
9422;SDS011;65863;49.506;10.400;2023-05-23T15:58:37;1.60;;;1.20;;
9422;SDS011;65863;49.506;10.400;2023-05-23T16:01:21;3.53;;;1.30;;
9422;SDS011;65863;49.506;10.400;2023-05-23T16:04:05;1.50;;;1.40;;
9422;SDS011;65863;49.506;10.400;2023-05-23T16:06:49;1.43;;;1.33;;
9422;SDS011;65863;49.506;10.400;2023-05-23T16:09:33;1.03;;;1.03;;
9422;SDS011;65863;49.506;10.400;2023-05-23T16:12:17;1.20;;;1.10;;
9422;SDS011;65863;49.506;10.400;2023-05-23T16:15:01;2.00;;;1.27;;
9422;SDS011;65863;49.506;10.400;2023-05-23T16:17:45;1.20;;;1.10;;
9422;SDS011;65863;49.506;10.400;2023-05-23T16:20:29;1.33;;;1.30;;
9422;SDS011;65863;49.506;10.400;2023-05-23T16:23:13;1.20;;;1.10;;
9422;SDS011;65863;49.506;10.400;2023-05-23T16:25:57;1.33;;;1.23;;
9422;SDS011;65863;49.506;10.400;2023-05-23T16:28:41;0.90;;;0.90;;
9422;SDS011;65863;49.506;10.400;2023-05-23T16:31:27;1.00;;;1.00;;
9422;SDS011;65863;49.506;10.400;2023-05-23T16:34:11;1.30;;;1.20;;
9422;SDS011;65863;49.506;10.400;2023-05-23T16:36:55;0.90;;;0.90;;
9422;SDS011;65863;49.506;10.400;2023-05-23T16:39:39;0.97;;;0.97;;
9422;SDS011;65863;49.506;10.400;2023-05-23T16:42:24;1.20;;;1.00;;
9422;SDS011;65863;49.506;10.400;2023-05-23T16:45:08;1.30;;;1.20;;
9422;SDS011;65863;49.506;10.400;2023-05-23T16:47:52;0.93;;;0.93;;
9422;SDS011;65863;49.506;10.400;2023-05-23T16:50:36;1.00;;;1.00;;
9422;SDS011;65863;49.506;10.400;2023-05-23T16:53:21;1.03;;;1.03;;
9422;SDS011;65863;49.506;10.400;2023-05-23T16:56:05;0.93;;;0.90;;